Cristian Coman

Recruteur - Universitatea Craiova
20 Févr 2028
Dimanche
Processus

Personnalité

Adaptabilité (6) Ambition (13) Controverse (19) Loyauté (15) Pression (18) Professionnalisme (5) Sportivité (6) Tempérament (1)

Profil

Style d'entraînement Démocratique
Diplôme National A
Détermination 9
Gestion des joueurs 8
Motivation 8
Discipline 12
Satisfaction professionnelle
100%
Fatigue
0%
Rôle Recruteur
Salaire 74.3K p/s
Contrat 14.03.2029

Performance

Comportement Bon
Efficacité de l'entraînement
46%
Développement des joueurs
25%
Prévention des blessures
20%
Mise en place tactique
35%

Événements récents

A participé à une réunion de recrutement 7j
A participé à une réunion de recrutement 7j
A participé à une réunion de recrutement 14j
A participé à une réunion de recrutement 14j
A participé à une réunion de recrutement 21j
A participé à une réunion de recrutement 21j
A présenté un dossier au conseil 21j
En formation continue 28j

Suivi en cours

111
Joueur Club Statut Capacité Confiance Observé Dernière observation Dernier vote
Karim Azamoum Viitorul Perdu 113 / 104 72% 1 17.01.2028 Approuver
Aarón Molinas Defensa y Justicia Actif 133 / 121 40% 1 06.12.2027 -
Griffin Yow New England Revolution Actif 123 / 135 40% 4 05.12.2027 -
Tadeo Allende Inter Miami CF Actif 135 / 122 40% 3 05.12.2027 -
Alberto Soro Dinamo Bucharest Perdu 118 / 125 40% 1 05.12.2027 Plus d'infos
Samuel Gidi FC Cincinnati Actif 119 / 131 40% 2 02.12.2027 -
Breel Embolo Atlanta United FC Actif 148 / 136 40% 1 02.12.2027 Plus d'infos
Bénie Traoré New York City Actif 130 / 125 40% 5 01.12.2027 -
Pavel Bucha FC Cincinnati Actif 134 / 130 40% 2 01.12.2027 -
Facundo Altamira Godoy Cruz Actif 125 / 128 40% 1 01.12.2027 -
Antonio Galeano Remo Stars Actif 122 / 125 40% 2 29.11.2027 -
Morgan Guilavogui Real Salt Lake Actif 128 / 124 40% 1 29.11.2027 -
Adrián Sánchez Belgrano Actif 130 / 121 40% 1 29.11.2027 -
Elias Achouri San Diego Football Club Actif 130 / 137 40% 2 28.11.2027 -
Luca Langoni Colorado Rapids Actif 135 / 137 40% 2 28.11.2027 -
Alexis Cuello San Lorenzo Actif 127 / 122 40% 1 28.11.2027 -
Telasco Segovia Inter Miami CF Actif 139 / 139 40% 2 27.11.2027 -
Franco Zapiola Platense Actif 124 / 126 40% 1 27.11.2027 -
Bryan Ramírez FC Cincinnati Actif 133 / 123 40% 3 26.11.2027 -
Alhassan Yusuf New England Revolution Actif 134 / 122 40% 1 26.11.2027 -
Lucas Sanabria LA Galaxy Actif 125 / 139 40% 1 26.11.2027 -
Djordje Mihailović Toronto FC Actif 134 / 139 40% 4 25.11.2027 -
Pedro de la Vega FC Dallas Actif 136 / 134 40% 3 25.11.2027 -
Marco Pašalić Orlando City Actif 134 / 136 40% 3 24.11.2027 -
Simen Bolkan Nordli Rosenborg Actif 121 / 128 40% 1 23.11.2027 -
Brennan Johnson Stoke City Actif 153 / 145 40% 1 21.11.2027 -
Matías Fernández Independiente Rivadavia Actif 112 / 125 40% 1 21.11.2027 -
Luciano Cosentino Wanderers Actif 131 / 120 40% 2 20.11.2027 -
Emmanuel Sabbi Vancouver Whitecaps Actif 126 / 113 40% 2 20.11.2027 -
Diego García Defensor Sporting Actif 116 / 123 40% 1 17.11.2027 -
Francisco González Metilli Belgrano Perdu 118 / 118 40% 1 17.11.2027 -
Allan Saint-Maximin Charlotte Football Club Actif 145 / 141 40% 4 15.11.2027 -
Luciano Boggio Nacional Actif 116 / 127 40% 2 13.11.2027 -
David Da Costa Portland Timbers Actif 136 / 126 40% 2 13.11.2027 -
Duncan McGuire Houston Dynamo Actif 129 / 128 40% 1 13.11.2027 -
Brooke Norton-Cuffy Inter Miami CF Actif 132 / 141 40% 1 12.11.2027 -
Duvan Rangel La Equidad Actif 126 / 130 40% 3 11.11.2027 -
Iván Angulo Orlando City Actif 142 / 134 40% 2 10.11.2027 -
Felipe Peña Biafore Lanús Actif 119 / 133 40% 1 10.11.2027 -
Manuel Duarte Barracas Central Actif 126 / 125 40% 1 10.11.2027 -
Mauricio Amaro Atlanta United FC Actif 119 / 121 40% 2 05.11.2027 -
Gabriel Pirani San Diego Football Club Actif 140 / 135 40% 3 05.11.2027 -
Nəriman Axundzadə Columbus Crew Actif 121 / 134 40% 2 29.10.2027 -
Marcelo Saracchi Houston Dynamo Actif 116 / 125 40% 1 28.10.2027 -
Brais Méndez Columbus Crew Actif 140 / 156 40% 3 26.10.2027 -
Maren Haile-Selassie Chicago Fire Actif 110 / 119 40% 1 26.10.2027 -
Emil Ceïde Rosenborg Actif 115 / 126 40% 1 23.10.2027 -
Sebastián Medina Tigre Actif 110 / 112 40% 1 21.10.2027 -
Gastón Togni Defensa y Justicia Actif 133 / 129 40% 1 21.10.2027 -
Martín Ojeda Orlando City Actif 130 / 143 40% 2 19.10.2027 -
Anders Dreyer San Diego Football Club Actif 120 / 137 40% 1 18.10.2027 -
Shapi Suleymanov Sporting Kansas City Actif 119 / 109 40% 1 17.10.2027 -
Lucas Souto Defensa y Justicia Actif 137 / 121 40% 1 11.10.2027 -
Joaquín Gho Argentinos Juniors Actif 122 / 120 40% 1 09.10.2027 -
André Franco Chicago Fire Actif 136 / 128 40% 1 08.10.2027 -
Gonzalo Abrego Godoy Cruz Actif 120 / 114 40% 1 05.10.2027 -
Ralph Orquin Seattle Sounders Actif 123 / 128 40% 1 05.10.2027 -
Alejo Cruz Juventud Actif 112 / 116 40% 1 05.10.2027 -
Armindo Sieb Los Angeles Football Club Actif 136 / 116 40% 1 04.10.2027 -
Diego Luna Real Salt Lake Actif 135 / 132 40% 1 04.10.2027 -
Christos Mouzakitis Hull City Actif 133 / 145 40% 4 03.08.2027 -
Ethan Pye Stockport County Actif 123 / 118 40% 1 03.08.2027 -
Welington Southampton Actif 131 / 128 40% 1 03.08.2027 -
Evgeny Staver Rubin Actif 112 / 114 40% 1 14.06.2027 -
Vladan Kovačević Norwich City Actif 115 / 119 40% 1 14.06.2027 -
Leo Castledine Middlesbrough Actif 127 / 133 40% 1 31.05.2027 -
Ernie Weaver AFC Wimbledon Actif 109 / 112 40% 3 26.05.2027 -
Darryl Bakola Padova Actif 109 / 123 40% 2 26.05.2027 -
Dylan Lawlor Cardiff City Actif 120 / 116 40% 3 25.05.2027 -
Christ Inao Oulaï Fiorentina Actif 141 / 137 40% 4 25.05.2027 -
Felix Afful Liberty Professionals Actif 94 / 94 40% 2 25.05.2027 -
Riley Owen Trento Actif 94 / 113 40% 5 24.05.2027 -
Juan Giménez Celta Actif 114 / 123 40% 2 24.05.2027 -
Martim Cunha Porto Actif 94 / 106 40% 6 23.05.2027 -
Eduardo Felicíssimo Sporting CP Actif 107 / 115 40% 2 23.05.2027 -
Gonçalo Oliveira Benfica Actif 117 / 111 40% 3 23.05.2027 -
Joel McGregor Swindon Town Actif 87 / 94 40% 4 21.05.2027 -
Matías Gómez Granada Actif 113 / 119 40% 1 21.05.2027 -
Sascha Britschgi Padova Actif 114 / 127 40% 2 20.05.2027 -
Rivaldo Grobler Free State Stars Actif 102 / 114 40% 1 20.05.2027 -
Edwin Asamoah Berekum Chelsea Actif 91 / 87 40% 2 16.05.2027 -
Adam Bakoune Ospitaletto Actif 104 / 107 40% 2 13.05.2027 -
Samuel Lucero Defensa y Justicia Actif 106 / 123 40% 2 11.05.2027 -
Tobias Slotsager Casertana Actif 104 / 120 40% 1 11.05.2027 -
Dmitry Pestryakov Dinamo Moscow Actif 120 / 116 40% 1 08.05.2027 -
Percy Jali Free State Stars Actif 84 / 104 40% 1 08.05.2027 -
Caleb Yirenkyi Coventry City Actif 134 / 138 40% 5 07.05.2027 -
Keagan Tau Ajax Cape Town Actif 101 / 98 40% 3 04.05.2027 -
Taras Mykhavko Dynamo Kyiv Actif 121 / 125 40% 2 03.05.2027 -
Maxim Radchenko Rostov Actif 86 / 87 40% 1 03.05.2027 -
Ezra Mayers West Ham United Actif 114 / 119 40% 1 02.05.2027 -
Zaïd BafdilI Sporting CP Actif 95 / 105 40% 1 27.04.2027 -
Denys Smetana Nyva Actif 95 / 103 40% 2 26.04.2027 -
Leandro Martins Benfica Actif 90 / 101 40% 3 24.04.2027 -
Kazunari Kita Real Sociedad Actif 97 / 99 40% 3 22.04.2027 -
Hlompho Lorch Ajax Cape Town Actif 105 / 106 40% 2 22.04.2027 -
Keagan Phiri Platinum Stars Actif 103 / 96 40% 1 18.04.2027 -
Vasilije Novičić IMT Actif 90 / 108 40% 1 18.04.2027 -
Mpho Khethang AS Police Actif 82 / 96 40% 2 14.04.2027 -
Jofre Torrents Ajax Actif 118 / 128 40% 3 13.04.2027 -
Daniel Kelly Oxford United Actif 117 / 119 40% 1 13.04.2027 -
Daniel Vernattus Metalist Actif 87 / 96 40% 2 12.04.2027 -
Joseph Nuhu Hasaacas Actif 75 / 91 40% 1 06.04.2027 -
Cathal Heffernan Harrogate Town Actif 80 / 92 40% 1 02.04.2027 -
Nikita Stoinov Dinamo Bucharest Actif 129 / 123 40% 1 02.04.2027 -
David Atiemo Liberty Professionals Actif 70 / 79 40% 1 29.03.2027 -
James Dornelly Peterborough United Actif 96 / 113 40% 2 22.03.2027 -
Finley McAllister Grimsby Town Actif 90 / 92 40% 1 22.03.2027 -
Samuele di Benedetto Bari Actif 116 / 122 40% 1 21.03.2027 -
Cemran Dansin Orlando Pirates Actif 102 / 122 40% 1 20.03.2027 -
Ronwen Phiri Platinum Stars Actif 101 / 107 40% 1 18.03.2027 -